< Typhoon 197118 1971 Season Typhoon 197120 >
Typhoon 197119 (OLIVE)
General InformationTrack Information on Google Maps || Disaster Info.ResourceGoogle EarthGE AnimationAtom FeedGeoJSON
Detalied Best Track (Time Zone = UTC)
Year Month Day Hour Lat. Long. Pressure (hPa) Wind (kt) Class Image Chart
1971 7 24 18 13.0 151.0 1008 0 2 -- Chart
1971 7 25 00 13.0 150.0 1008 0 2 -- Chart
1971 7 25 06 13.5 149.0 1008 0 2 -- Chart
1971 7 25 12 14.0 148.0 1008 0 2 -- Chart
1971 7 25 18 14.7 147.0 1008 0 2 -- Chart
1971 7 26 00 15.0 146.0 1008 0 2 -- Chart
1971 7 26 06 15.0 145.3 1006 0 2 -- Chart
1971 7 26 12 15.0 144.5 1006 0 2 -- Chart
1971 7 26 18 15.0 144.0 1006 0 2 -- Chart
1971 7 27 00 15.0 143.0 1006 0 2 -- Chart
1971 7 27 06 15.3 142.2 1004 0 2 -- Chart
1971 7 27 12 16.0 141.0 1004 0 2 -- Chart
1971 7 27 18 17.0 140.0 1004 0 2 -- Chart
1971 7 28 00 18.0 139.5 1004 0 2 -- Chart
1971 7 28 06 19.0 140.0 1004 0 2 -- Chart
1971 7 28 12 20.0 141.0 1004 0 2 -- Chart
1971 7 28 18 21.0 142.0 1004 0 2 -- Chart
1971 7 29 00 21.7 143.0 1004 0 2 -- Chart
1971 7 29 06 22.5 144.0 1001 0 2 -- Chart
1971 7 29 12 23.0 144.0 1001 0 2 -- Chart
1971 7 29 18 23.7 143.3 992 0 2 -- Chart
1971 7 30 00 24.0 142.5 990 0 2 -- Chart
1971 7 30 06 24.2 141.5 990 0 2 -- Chart
1971 7 30 12 24.0 140.5 985 0 9 -- Chart
1971 7 30 18 24.0 140.0 985 0 9 -- Chart
1971 7 31 00 24.0 139.0 985 0 9 -- Chart
1971 7 31 06 23.8 138.3 980 0 9 -- Chart
1971 7 31 12 23.8 137.8 980 0 9 -- Chart
1971 7 31 18 23.5 137.5 980 0 9 -- Chart
1971 8 1 00 23.7 137.0 975 0 9 -- Chart
1971 8 1 06 24.5 136.5 970 0 9 -- Chart
1971 8 1 12 24.5 135.8 965 0 9 -- Chart
1971 8 1 18 24.5 135.2 965 0 9 -- Chart
1971 8 2 00 25.0 134.8 965 0 9 -- Chart
1971 8 2 06 25.5 134.5 960 0 9 -- Chart
1971 8 2 12 25.9 134.0 960 0 9 -- Chart
1971 8 2 18 26.5 133.3 960 0 9 -- Chart
1971 8 3 00 27.1 132.8 950 0 9 -- Chart
1971 8 3 06 28.0 132.0 945 0 9 -- Chart
1971 8 3 12 28.5 131.0 940 0 9 -- Chart
1971 8 3 18 28.7 130.5 935 0 9 -- Chart
1971 8 4 00 29.5 130.5 935 0 9 -- Chart
1971 8 4 06 29.5 130.0 935 0 9 -- Chart
1971 8 4 12 30.5 130.0 935 0 9 -- Chart
1971 8 4 18 31.2 130.0 940 0 9 -- Chart
1971 8 5 00 32.5 130.1 950 0 9 -- Chart
1971 8 5 06 34.1 130.2 960 0 9 -- Chart
1971 8 5 12 35.8 130.7 965 0 9 -- Chart
1971 8 5 18 37.3 130.8 975 0 9 -- Chart
1971 8 6 00 39.4 131.8 975 0 9 -- Chart
1971 8 6 06 41.3 133.3 980 0 9 -- Chart
1971 8 6 12 42.5 135.3 980 0 9 -- Chart
1971 8 6 18 43.8 137.0 990 0 9 -- Chart
1971 8 7 00 45.0 139.5 996 0 9 -- Chart
1971 8 7 06 45.7 141.7 1000 0 6 -- Chart
1971 8 7 12 46.0 144.0 1004 0 6 -- Chart
1971 8 7 18 46.0 146.0 1004 0 6 -- Chart
1971 8 8 00 46.3 147.6 1004 0 6 -- Chart
1971 8 8 06 46.3 149.2 1006 0 6 -- Chart
Japan Meteorological Agency Best Track Data | Correction Date : 1989-06-01
< Typhoon 197118 1971 Season Typhoon 197120 >

Help